Airport details for: EINN (Ireland)

Metar

EINN 171830Z 04005KT 9999 SCT038 09/06 Q1015 NOSIG

General details

ICAO: EINN
IATA: SNN
Name (city): Shannon
Major:
Country: Ireland
vACC: vACC Ireland
Description:
Scenery links:
FS9 scenery:
FSX/P3D scenery:
XP scenery:
Elevation: 46 ft.
Transition altitude: 5000 ft.
MSA: 10400 ft.
Latitude: 52.701978
Longitude: -8.924817000000001
EINN Charts
EINN Notams
EINN Online stations

Runways

Number Course Length Elevation Lat Lon ILS ILS freq ILS FAC GP
06 58° 10495ft / 3199 m 46ft 52.693172 -8.94352 109.5 58° 3.0°
24 238° 10495ft / 3199 m 15ft 52.710008 -8.907742 110.95 238° 3.0°